Weather at Orlando International Airport

Public forecast

Using degrees Fahrenheit for public forecast. Weather courtesy of forecast.io.

Current aviation weather report (METAR) for Orlando International Airport

Retrieved 2022/05/23 08:53 UTC (21 minutes ago):

KMCO 230853Z 15005KT 10SM BKN250 23/22 A3012 RMK AO2 SLP197 T02330222 56016

Aviation forecast (TAF) for Orlando International Airport

Retrieved 2022/05/23 06:36 UTC (3 hours ago):

TAF KMCO 230534Z 2306/2412 13008KT P6SM BKN250 FM231400 14008KT P6SM FEW025 FM232100 12009KT P6SM SCT050 SCT080 FM240200 VRB04KT P6SM SCT250